Ontario International Airport
KONT : now visible

Airfield :











YOU CAN JOIN US ON...

 
LOGIN :

Register | Disclaimer

   EN    FR    IT 

 









Legend :    VFR   Marginal VFR   IFR   Intensive IFR   Very Intensive IFR
Visi :
Ceiling :
>= 8 km
>= 3000ft
5 to 8 km
1000 to 3000 ft
1500m to 5 km
500 to 1000 ft
800 to 1500m
200 to 500 ft
< 800m
< 200 ft
Symbols :   Thunderstorms  Fog  Heavy snow  Heavy precipitations  Wind > 20 kt






- Airport Elevation : 944 ft
- IATA code : ONT


KONT - Ontario International

CURRENT METAR :
  • 030853Z 00000KT 10SM CLR 20/16 A2996 RMK AO2 SLP124 T02000161 58003

EXPIRED METARs :
  • 030753Z VRB04KT 10SM CLR 20/16 A2996 RMK AO2 SLP127 FU DSNT E T02000156 403720200
  • 030653Z VRB06KT 10SM CLR 21/16 A2996 RMK AO2 SLP128 FU DSNT E T02110156

TAF KONT
Valid from the 03 at 06:00 until the 04 at 12:00 UTC


030520Z 0306/0412 VRB05KT P6SM SKC
FM032000 26011G18KT P6SM SKC
FM040500 VRB05KT P6SM SKC
KZLA FIR / North America



MET'MAP, your aeronautical weather chart ! - Copyright ORBIFLY December 2007 - Disclaimer

ORBIFLY MET'MAP TEAM :

Programming & Development : Alexandra Zaïnal
Concept & original design : Baudouin d'Aumeries
Assistance for programming : Marc-Olivier Méhu
Technical & hardware support : Manuel Goepfert

Contact : metmap@orbifly.com




SOURCES & CREDITS :

   NOAA       Earth
Advisory